Cushing Island, Maine
Current Conditions -  °F | °C
As of 1:51 AM on Friday 31 Oct 2014 (Local Time) from KPWM Reporting Station
Clear Clear  
Wind Chill: 34°   Ceiling: Unl
Heat Index: 34°   Visibility: 10mi
Dew Point: 31°   Wind: 3mph
Humidity: 89%   Direction: 290°WNW
Pressure: 30.02"   Gusts: NA
Location:  43.6801°N, 70.1969°W
Report Text: KPWM 310551Z AUTO 29003KT 10SM CLR 01/M01 A3002 RMK AO2 SLP166 T00111006 10083 20011 51008
Loading
Personal Weather Stations






























Interactive Weather Map
Tropical Storm Tracking
New forecast layout! Learn more

10-Day Weather Forecast

Advertisements
Track Severe Weather on mobile